Date, South Dakota
Current Conditions -  °F | °C
As of 11:53 AM on Thursday 23 Oct 2014 (Local Time) from KHEI Reporting Station
Clear Clear  
Wind Chill: 67°   Ceiling: Unl
Heat Index: 67°   Visibility: 10mi
Dew Point: 26°   Wind: 10mph
Humidity: 21%   Direction: 200°SSW
Pressure: 29.9"   Gusts: NA
Location:  45.6029°N, 102.827°W
Report Text: KHEI 231753Z AUTO 20009KT 10SM CLR 19/M03 A2990 RMK AO2 SLP130 T01941033 10194 21028 58010
Loading
Personal Weather Stations






























Interactive Weather Map
Tropical Storm Tracking
New forecast layout! Learn more

10-Day Weather Forecast

Advertisements
Track Severe Weather on mobile